Kuujjuaq Airport, Quebec

Past 24 Hour Conditions

Date / Time
(EDT)
Conditions Temp
(°C)
Humidity
(%)
Dew Point
(°C)
Wind
(km/h)
Pressure
(kPa)
Vis
(km)
Wind Chill
31 October 2014
4:00 Light Snow -1   87 -3 WSW 21 gust 34 99.9 24 -6
3:00 Light Snow 0 89 -2 W 17 gust 34 99.8 24 -5
2:00 Light Snow 0 92 -1 WSW 18 99.7 24 -5
1:00 Light Snow 0 94 -1 WSW 17 99.6 8 *
00:00 Light Snow 0 93 -1 W 13 99.6 13 *
30 October 2014
23:00 Light Snow 0 94 -1 W 13 99.5 13 *
22:00 Light Snow 1 94 0 W 14 99.5 19 *
21:00 Light Snow 1 95 0 WSW 11 99.5 19 *
20:00 Light Snow 1 94 0 W 11 99.4 8 *
19:00 Light Snow 1 93 0 W 8 99.3 13 *
18:00 Light Rain and Snow 1 94 0 W 12 99.3 13 *
17:00 Light Rain 1 95 0 W 10 99.2 13 *
16:00 Mostly Cloudy 2 92 1 W 23 99.1 16 *
15:00 Mostly Cloudy 2 95 2 W 9 99.1 19 *
14:00 Mostly Cloudy 3   95 2 W 8 99.0 19 *
13:00 Mostly Cloudy 3   97 2 WNW 6 99.0 19 *
12:00 Mist 2 98 2 WNW 9 99.0 10 *
11:00 Mist 2 98 2 W 6 99.0 4 *
10:00 Mist 2 98 2 WNW 4 99.0 4 *
9:00 Mist 2 98 2 NW 5 99.0 1 *
8:00 Fog 2 97 2 NNW 4 99.0 0.6 *
7:00 Light Rain 2 97 2 calm 99.0 1 *
6:00 Mist 3   97 2 SE 5 99.0 10 *
5:00 Light Rain 3   97 2 ENE 6 99.0 16 *
4:00 Light Rain 3   97 2 ENE 4 99.0 10 *
N/A Not available
↑ Highest temperature
↓ Lowest temperature
* Value not significant.

If you require additional historical weather information, please visit Climate Data Online.

Date modified: